Time;durP1;ratioP1;P1;durP2;ratioP2;P2;SDS_P1;SDS_P2;PMS_P1;PMS_P2;Temp;Humidity;BMP_temperature;BMP_pressure;BME280_temperature;BME280_humidity;BME280_pressure;Samples;Min_cycle;Max_cycle;Signal;HPM_P1;HPM_P2
2022/07/17 00:00:42;;;;;;;3.08;1.10;;;19.30;73.40;;;;;;10563974;28;20036;-67
2022/07/17 00:05:44;;;;;;;1.42;0.70;;;19.20;73.40;;;;;;10567357;28;20544;-67
2022/07/17 00:10:45;;;;;;;1.10;0.75;;;19.20;73.50;;;;;;10565880;28;20023;-67
2022/07/17 00:15:45;;;;;;;1.33;0.80;;;19.20;73.70;;;;;;10563510;28;20027;-68
2022/07/17 00:20:46;;;;;;;2.08;1.00;;;19.10;73.60;;;;;;10565161;28;20486;-67
2022/07/17 00:25:47;;;;;;;1.17;1.00;;;19.10;73.60;;;;;;10565779;28;20076;-65
2022/07/17 00:30:47;;;;;;;2.63;0.80;;;19.10;73.80;;;;;;10565130;28;20116;-63
2022/07/17 00:35:48;;;;;;;2.28;1.50;;;19.10;73.80;;;;;;10565880;28;20576;-66
2022/07/17 00:40:49;;;;;;;1.60;0.70;;;19.00;73.80;;;;;;10563971;28;20122;-68
2022/07/17 00:45:58;;;;;;;1.48;1.08;;;19.00;73.90;;;;;;10570488;28;20126;-67
2022/07/17 00:50:59;;;;;;;1.42;1.00;;;18.90;73.90;;;;;;10572003;28;20045;-67
2022/07/17 00:56:03;;;;;;;1.23;0.80;;;18.90;73.90;;;;;;10573137;28;20446;-68
2022/07/17 01:01:08;;;;;;;1.15;0.80;;;18.90;74.00;;;;;;10570538;28;20063;-67
2022/07/17 01:06:09;;;;;;;1.85;1.23;;;18.90;74.00;;;;;;10572123;28;20036;-67
2022/07/17 01:11:10;;;;;;;1.88;0.90;;;18.80;74.10;;;;;;10571835;28;20019;-65
2022/07/17 01:16:10;;;;;;;1.98;0.80;;;18.80;74.10;;;;;;10570676;28;20031;-68
2022/07/17 01:21:11;;;;;;;2.28;0.93;;;18.80;74.20;;;;;;10570543;28;20019;-67
2022/07/17 01:26:12;;;;;;;4.75;1.00;;;18.70;74.10;;;;;;10572909;28;20126;-67
2022/07/17 01:31:13;;;;;;;0.90;0.75;;;18.70;74.20;;;;;;10571169;28;20024;-63
2022/07/17 01:36:13;;;;;;;2.58;0.98;;;18.70;74.20;;;;;;10571454;28;20020;-67
2022/07/17 01:41:14;;;;;;;1.80;1.15;;;18.60;74.20;;;;;;10571608;28;20416;-66
2022/07/17 01:46:15;;;;;;;3.78;1.00;;;18.60;74.30;;;;;;10569950;28;20477;-67
2022/07/17 01:51:16;;;;;;;0.95;0.80;;;18.60;74.30;;;;;;10568677;28;20048;-65
2022/07/17 01:56:16;;;;;;;1.48;1.00;;;18.50;74.30;;;;;;10570701;28;20036;-65
2022/07/17 02:01:17;;;;;;;2.05;1.00;;;18.50;74.30;;;;;;10570104;28;20032;-67
2022/07/17 02:06:18;;;;;;;1.70;0.75;;;18.50;74.30;;;;;;10569719;28;20703;-66
2022/07/17 02:11:19;;;;;;;2.55;0.77;;;18.50;74.40;;;;;;10567338;28;20454;-63
2022/07/17 02:16:20;;;;;;;1.52;0.80;;;18.40;74.30;;;;;;10568290;28;20024;-64
2022/07/17 02:21:21;;;;;;;1.98;0.80;;;18.40;74.40;;;;;;10569750;28;20477;-66
2022/07/17 02:26:21;;;;;;;1.63;0.77;;;18.40;74.40;;;;;;10568873;28;20024;-68
2022/07/17 02:31:22;;;;;;;1.20;0.88;;;18.30;74.40;;;;;;10569423;28;20031;-68
2022/07/17 02:36:23;;;;;;;1.20;0.85;;;18.30;74.40;;;;;;10569381;28;20178;-68
2022/07/17 02:41:23;;;;;;;3.45;1.00;;;18.30;74.40;;;;;;10568242;28;20020;-67
2022/07/17 02:46:24;;;;;;;1.35;0.90;;;18.30;74.50;;;;;;10567444;28;20363;-67
2022/07/17 02:51:25;;;;;;;1.02;0.73;;;18.20;74.50;;;;;;10566716;28;20126;-64
2022/07/17 02:56:25;;;;;;;1.60;0.95;;;18.20;74.50;;;;;;10568982;28;20564;-66
2022/07/17 03:01:26;;;;;;;3.20;1.00;;;18.20;74.60;;;;;;10567698;28;20510;-70
2022/07/17 03:06:27;;;;;;;0.98;0.77;;;18.10;74.50;;;;;;10567049;28;20016;-64
2022/07/17 03:11:27;;;;;;;1.48;0.80;;;18.10;74.60;;;;;;10568563;28;20534;-65
2022/07/17 03:16:28;;;;;;;1.83;0.85;;;18.10;74.60;;;;;;10567310;28;20092;-63
2022/07/17 03:21:29;;;;;;;1.30;0.80;;;18.10;74.60;;;;;;10567172;28;20019;-65
2022/07/17 03:26:30;;;;;;;2.35;0.65;;;18.00;74.60;;;;;;10566890;28;20293;-70
2022/07/17 03:31:30;;;;;;;0.60;0.60;;;18.00;74.70;;;;;;10567031;28;20038;-67
2022/07/17 03:36:31;;;;;;;1.00;0.80;;;18.00;74.70;;;;;;10566597;28;20357;-67
2022/07/17 03:41:32;;;;;;;2.28;0.82;;;17.90;74.70;;;;;;10566521;28;20024;-66
2022/07/17 03:46:33;;;;;;;1.73;1.00;;;17.90;74.70;;;;;;10566660;28;20465;-65
2022/07/17 03:51:33;;;;;;;3.45;0.88;;;17.90;74.70;;;;;;10565194;28;20114;-63
2022/07/17 03:56:34;;;;;;;1.02;0.90;;;17.90;74.70;;;;;;10565890;28;20028;-68
2022/07/17 04:01:35;;;;;;;2.72;1.00;;;17.90;74.70;;;;;;10512520;28;20051;-67
2022/07/17 04:06:35;;;;;;;0.88;0.80;;;17.90;74.80;;;;;;10471844;28;20062;-63
2022/07/17 04:11:36;;;;;;;1.40;0.93;;;17.90;74.90;;;;;;10479640;28;20089;-69
2022/07/17 04:16:37;;;;;;;2.28;1.08;;;17.90;74.90;;;;;;10477209;28;20043;-71
2022/07/17 04:21:37;;;;;;;1.92;0.75;;;17.80;74.80;;;;;;10479726;28;20236;-70
2022/07/17 04:26:38;;;;;;;1.00;0.80;;;17.80;74.90;;;;;;10487069;28;20043;-70
2022/07/17 04:31:39;;;;;;;1.80;0.80;;;17.80;74.90;;;;;;10484087;28;20709;-68
2022/07/17 04:36:39;;;;;;;1.45;0.80;;;17.80;75.00;;;;;;10488860;27;20040;-68
2022/07/17 04:41:40;;;;;;;2.15;1.08;;;17.80;75.00;;;;;;10487285;28;20135;-64
2022/07/17 04:46:41;;;;;;;1.00;0.80;;;17.80;75.10;;;;;;10487295;28;20055;-64
2022/07/17 04:51:42;;;;;;;1.27;0.90;;;17.80;75.20;;;;;;10487541;28;20122;-65
2022/07/17 04:56:43;;;;;;;1.08;0.80;;;17.80;75.20;;;;;;10482200;28;20054;-70
2022/07/17 05:01:43;;;;;;;1.20;1.10;;;17.80;75.20;;;;;;10486632;28;20058;-70
2022/07/17 05:06:44;;;;;;;1.20;0.80;;;17.80;75.30;;;;;;10486658;28;20020;-67
2022/07/17 05:11:45;;;;;;;1.70;0.80;;;17.70;75.90;;;;;;10480334;28;20707;-70
2022/07/17 05:16:45;;;;;;;1.13;0.80;;;17.80;75.40;;;;;;10485984;28;20053;-62
2022/07/17 05:21:46;;;;;;;1.45;0.90;;;17.70;75.40;;;;;;10485423;28;20023;-67
2022/07/17 05:26:47;;;;;;;2.22;1.42;;;17.70;75.40;;;;;;10475695;28;20040;-64
2022/07/17 05:31:48;;;;;;;3.10;1.10;;;17.80;75.60;;;;;;10473459;28;20033;-66
2022/07/17 05:36:49;;;;;;;1.95;0.90;;;17.80;75.60;;;;;;10481286;28;20044;-71
2022/07/17 05:41:49;;;;;;;1.23;1.02;;;17.80;75.60;;;;;;10483750;28;20258;-71
2022/07/17 05:46:50;;;;;;;2.40;0.73;;;17.80;75.60;;;;;;10484679;28;20593;-64
2022/07/17 05:51:51;;;;;;;2.30;0.80;;;17.80;75.60;;;;;;10486571;27;20180;-67
2022/07/17 05:56:52;;;;;;;1.63;0.80;;;17.80;75.60;;;;;;10483710;27;20497;-65
2022/07/17 06:01:52;;;;;;;2.45;0.70;;;17.80;75.70;;;;;;10481371;27;20074;-64
2022/07/17 06:06:53;;;;;;;2.95;1.02;;;17.80;75.70;;;;;;10486372;27;20062;-62
2022/07/17 06:11:54;;;;;;;1.17;0.85;;;17.80;75.70;;;;;;10484573;28;20395;-67
2022/07/17 06:16:55;;;;;;;1.20;0.73;;;17.80;75.80;;;;;;10484036;27;20534;-68
2022/07/17 06:21:55;;;;;;;0.63;0.60;;;17.80;75.90;;;;;;10484348;28;20032;-66
2022/07/17 06:26:56;;;;;;;1.40;0.80;;;17.80;75.90;;;;;;10481784;27;20600;-70
2022/07/17 06:31:57;;;;;;;2.97;1.00;;;17.80;75.90;;;;;;10483280;28;20426;-70
2022/07/17 06:36:57;;;;;;;4.10;0.82;;;17.80;75.90;;;;;;10482468;28;20132;-70
2022/07/17 06:41:58;;;;;;;1.00;0.70;;;17.80;76.00;;;;;;10480845;28;20097;-70
2022/07/17 06:46:59;;;;;;;1.55;0.82;;;17.80;75.90;;;;;;10479544;28;20051;-71
2022/07/17 06:52:00;;;;;;;1.13;0.70;;;17.80;75.90;;;;;;10483780;28;20133;-70
2022/07/17 06:57:01;;;;;;;2.00;0.75;;;17.80;75.90;;;;;;10480605;28;20178;-71
2022/07/17 07:02:01;;;;;;;3.03;1.00;;;17.90;75.90;;;;;;10479642;28;20476;-70
2022/07/17 07:07:02;;;;;;;1.08;0.80;;;17.90;75.90;;;;;;10482678;28;20148;-70
2022/07/17 07:12:03;;;;;;;0.70;0.65;;;17.90;75.90;;;;;;10480630;28;20359;-70
2022/07/17 07:17:05;;;;;;;2.33;0.70;;;17.90;75.80;;;;;;10479555;28;20487;-70
2022/07/17 07:22:05;;;;;;;2.30;0.90;;;17.90;75.80;;;;;;10482811;28;20036;-64
2022/07/17 07:27:06;;;;;;;2.88;0.75;;;18.00;75.80;;;;;;10481654;28;20039;-67
2022/07/17 07:32:07;;;;;;;4.60;0.82;;;18.00;75.70;;;;;;10475994;28;20030;-61
2022/07/17 07:37:08;;;;;;;1.85;0.70;;;18.00;75.90;;;;;;10482057;28;20420;-61
2022/07/17 07:42:08;;;;;;;2.65;0.70;;;17.90;76.50;;;;;;10478107;28;20338;-64
2022/07/17 07:47:09;;;;;;;3.92;0.88;;;17.80;76.80;;;;;;10480133;28;20052;-63
2022/07/17 07:52:10;;;;;;;7.75;0.82;;;17.80;77.20;;;;;;10479117;28;20504;-64
2022/07/17 07:57:11;;;;;;;4.88;1.20;;;17.80;77.80;;;;;;10494347;28;20042;-63
2022/07/17 08:02:11;;;;;;;3.80;1.35;;;17.70;78.40;;;;;;10486679;28;20585;-78
2022/07/17 08:07:12;;;;;;;3.22;1.05;;;17.70;79.00;;;;;;10486901;28;20146;-63
2022/07/17 08:12:13;;;;;;;3.10;0.93;;;17.70;79.00;;;;;;10481387;28;20422;-71
2022/07/17 08:17:13;;;;;;;3.47;0.63;;;17.70;79.10;;;;;;10493338;28;20146;-63
2022/07/17 08:22:14;;;;;;;4.15;0.90;;;17.70;79.30;;;;;;10501518;28;20024;-61
2022/07/17 08:27:15;;;;;;;5.10;1.23;;;17.80;79.10;;;;;;10487852;28;20485;-67
2022/07/17 08:32:16;;;;;;;4.57;0.90;;;18.30;79.80;;;;;;10491429;28;20089;-63
2022/07/17 08:37:16;;;;;;;6.43;1.17;;;17.80;80.00;;;;;;10487121;28;20528;-63
2022/07/17 08:42:17;;;;;;;7.32;1.20;;;17.70;80.50;;;;;;10494020;28;20104;-63
2022/07/17 08:47:21;;;;;;;5.22;0.90;;;17.80;80.70;;;;;;10481497;28;20047;-62
2022/07/17 08:52:24;;;;;;;2.38;0.98;;;17.70;81.30;;;;;;10484621;28;20427;-66
2022/07/17 08:57:25;;;;;;;4.15;0.85;;;17.80;81.20;;;;;;10481114;28;20037;-63
2022/07/17 09:02:26;;;;;;;4.25;0.82;;;17.80;81.30;;;;;;10480965;28;20020;-63
2022/07/17 09:07:27;;;;;;;4.45;1.10;;;17.80;81.10;;;;;;10484772;28;20653;-63
2022/07/17 09:12:29;;;;;;;4.32;0.60;;;17.80;81.10;;;;;;10490863;27;20453;-63
2022/07/17 09:17:30;;;;;;;1.70;0.60;;;17.90;80.60;;;;;;10476383;28;20260;-63
2022/07/17 09:22:30;;;;;;;6.10;1.08;;;18.00;80.40;;;;;;10475812;28;20035;-62
2022/07/17 09:27:33;;;;;;;7.47;1.05;;;18.10;80.30;;;;;;10477325;28;21079;-66
2022/07/17 09:32:37;;;;;;;7.13;0.98;;;18.20;80.30;;;;;;10484649;28;20357;-62
2022/07/17 09:37:38;;;;;;;3.95;1.05;;;18.20;80.90;;;;;;10482031;28;20084;-76
2022/07/17 09:42:39;;;;;;;2.45;0.95;;;18.20;81.10;;;;;;10495462;28;20607;-80
2022/07/17 09:47:40;;;;;;;6.47;1.10;;;18.30;81.30;;;;;;10504274;27;20496;-63
2022/07/17 09:52:41;;;;;;;4.30;0.90;;;18.40;81.10;;;;;;10516695;28;20035;-81
2022/07/17 09:57:43;;;;;;;2.42;0.70;;;18.40;80.90;;;;;;10498410;28;20044;-82
2022/07/17 10:02:44;;;;;;;5.65;1.65;;;18.40;80.60;;;;;;10480401;28;20035;-62
2022/07/17 10:07:46;;;;;;;3.88;1.10;;;18.40;80.70;;;;;;10478992;28;20032;-63
2022/07/17 10:12:49;;;;;;;6.07;1.30;;;18.50;80.50;;;;;;10486120;28;20127;-63
2022/07/17 10:17:50;;;;;;;3.72;1.67;;;18.60;80.40;;;;;;10483666;28;20484;-65
2022/07/17 10:22:51;;;;;;;4.40;1.10;;;18.70;79.80;;;;;;10490146;28;20488;-71
2022/07/17 10:27:54;;;;;;;3.78;1.00;;;18.70;79.70;;;;;;10493900;28;20112;-69
2022/07/17 10:33:00;;;;;;;3.50;0.93;;;18.80;79.60;;;;;;10491932;28;20027;-72
2022/07/17 10:38:12;;;;;;;4.13;1.17;;;18.90;79.60;;;;;;10490437;28;20150;-65
2022/07/17 10:43:13;;;;;;;2.30;0.90;;;19.10;81.50;;;;;;10492010;28;20037;-64
2022/07/17 10:48:16;;;;;;;2.22;1.00;;;19.30;79.80;;;;;;10491688;28;20056;-67
2022/07/17 10:53:22;;;;;;;2.65;1.08;;;19.40;79.50;;;;;;10491777;28;20446;-62
2022/07/17 10:58:28;;;;;;;3.25;1.13;;;19.70;79.10;;;;;;10484003;28;20090;-63
2022/07/17 11:03:30;;;;;;;2.13;0.80;;;19.80;78.60;;;;;;10486781;28;20513;-68
2022/07/17 11:08:34;;;;;;;3.35;1.30;;;19.90;78.00;;;;;;10489658;28;20366;-66
2022/07/17 11:13:37;;;;;;;1.75;0.80;;;20.00;77.60;;;;;;10492032;27;20277;-67
2022/07/17 11:18:46;;;;;;;1.95;1.08;;;20.00;77.40;;;;;;10485872;28;20130;-68
2022/07/17 11:23:53;;;;;;;4.07;1.10;;;20.10;77.60;;;;;;10490246;28;20507;-63
2022/07/17 11:28:55;;;;;;;3.13;1.20;;;20.20;77.10;;;;;;10480226;28;20141;-66
2022/07/17 11:33:59;;;;;;;2.38;1.20;;;20.40;77.40;;;;;;10487350;27;20227;-64
2022/07/17 11:55:22;;;;;;;3.97;1.23;;;20.80;74.80;;;;;;11198496;22;20055;-65
2022/07/17 12:00:23;;;;;;;5.97;1.13;;;20.70;75.90;;;;;;10358929;28;20041;-66
2022/07/17 12:05:27;;;;;;;4.85;1.25;;;20.70;76.00;;;;;;10362900;28;20025;-65
2022/07/17 12:10:32;;;;;;;3.72;1.05;;;20.90;76.10;;;;;;10376092;28;20029;-65
2022/07/17 12:15:48;;;;;;;4.30;1.25;;;21.10;76.40;;;;;;10363479;28;20029;-64
2022/07/17 12:20:51;;;;;;;5.13;1.50;;;21.30;75.60;;;;;;10368780;28;20482;-66
2022/07/17 12:26:22;;;;;;;5.03;1.30;;;21.50;75.00;;;;;;10360662;28;20063;-68
2022/07/17 12:31:26;;;;;;;4.75;1.42;;;21.60;74.00;;;;;;10350805;28;21007;-67
2022/07/17 12:36:26;;;;;;;4.50;1.65;;;21.70;74.60;;;;;;10357473;28;20036;-64
2022/07/17 12:41:27;;;;;;;2.78;1.38;;;21.90;74.50;;;;;;10359257;28;20652;-64
2022/07/17 12:46:28;;;;;;;3.78;1.60;;;21.90;73.80;;;;;;10364780;28;20489;-68
2022/07/17 12:51:30;;;;;;;3.40;1.52;;;22.10;73.60;;;;;;10385505;28;20143;-66
2022/07/17 12:56:30;;;;;;;4.63;1.40;;;22.30;73.40;;;;;;10383156;28;20118;-66
2022/07/17 13:01:31;;;;;;;3.13;1.73;;;22.50;73.20;;;;;;10387963;28;20040;-68
2022/07/17 13:06:32;;;;;;;4.50;1.55;;;22.50;72.90;;;;;;10366999;28;20118;-66
2022/07/17 13:11:33;;;;;;;5.70;1.77;;;22.70;72.90;;;;;;10378916;28;20481;-63
2022/07/17 13:16:34;;;;;;;3.13;1.48;;;22.80;72.20;;;;;;10377082;28;20430;-67
2022/07/17 13:21:35;;;;;;;3.83;1.50;;;22.90;72.20;;;;;;10372367;28;20059;-62
2022/07/17 13:26:36;;;;;;;3.42;1.38;;;23.00;72.20;;;;;;10374162;28;20582;-68
2022/07/17 13:31:37;;;;;;;3.45;1.50;;;23.10;72.20;;;;;;10375212;28;20147;-62
2022/07/17 13:36:38;;;;;;;4.35;1.85;;;23.30;72.30;;;;;;10352739;28;20387;-62
2022/07/17 13:41:39;;;;;;;6.32;1.90;;;23.50;72.10;;;;;;10376657;28;20040;-63
2022/07/17 13:46:40;;;;;;;5.25;1.50;;;23.60;72.10;;;;;;10363280;28;20504;-63
2022/07/17 13:51:41;;;;;;;2.70;1.30;;;23.70;72.10;;;;;;10361366;28;20032;-62
2022/07/17 13:56:41;;;;;;;2.75;1.50;;;23.80;72.00;;;;;;10381269;28;20585;-62
2022/07/17 14:01:42;;;;;;;3.47;1.50;;;24.00;71.90;;;;;;10366688;28;20047;-63
2022/07/17 14:06:43;;;;;;;2.90;1.50;;;24.10;71.70;;;;;;10369575;28;20080;-72
2022/07/17 14:11:44;;;;;;;5.18;1.77;;;24.20;71.50;;;;;;10340693;28;20442;-67
2022/07/17 14:16:45;;;;;;;6.25;1.88;;;24.30;71.30;;;;;;10362672;28;20033;-64
2022/07/17 14:21:46;;;;;;;3.70;1.60;;;24.40;71.20;;;;;;10353669;28;20645;-64
2022/07/17 14:26:47;;;;;;;7.10;2.00;;;24.50;71.20;;;;;;10355965;28;20025;-63
2022/07/17 14:31:48;;;;;;;4.70;1.77;;;24.50;70.70;;;;;;10357305;28;20312;-64
2022/07/17 14:36:49;;;;;;;10.30;2.20;;;24.40;71.00;;;;;;10370679;28;20025;-64
2022/07/17 14:41:50;;;;;;;5.55;1.83;;;24.50;70.70;;;;;;10370926;28;20537;-64
2022/07/17 14:46:50;;;;;;;4.53;1.88;;;24.40;70.80;;;;;;10350762;28;20532;-63
2022/07/17 14:51:51;;;;;;;3.80;2.08;;;24.30;71.10;;;;;;10364209;28;20581;-64
2022/07/17 14:56:52;;;;;;;3.67;2.10;;;24.40;70.90;;;;;;10355479;28;20725;-63
2022/07/17 15:01:53;;;;;;;4.78;2.20;;;24.50;70.30;;;;;;10354420;28;20531;-64
2022/07/17 15:06:53;;;;;;;3.63;2.08;;;24.60;70.10;;;;;;10356434;28;20068;-63
2022/07/17 15:11:55;;;;;;;4.60;2.15;;;24.70;70.30;;;;;;10350502;28;20462;-65
2022/07/17 15:16:55;;;;;;;4.70;2.67;;;24.80;70.00;;;;;;10349260;28;20041;-65
2022/07/17 15:21:56;;;;;;;4.13;2.22;;;24.90;69.20;;;;;;10353666;28;20455;-63
2022/07/17 15:26:57;;;;;;;6.18;2.72;;;24.70;69.50;;;;;;10355384;28;20116;-65
2022/07/17 15:31:57;;;;;;;4.55;2.53;;;24.50;69.50;;;;;;10349939;28;20143;-64
2022/07/17 15:36:58;;;;;;;5.70;3.58;;;24.40;69.90;;;;;;10333751;28;20460;-64
2022/07/17 15:42:05;;;;;;;5.00;2.65;;;24.20;69.90;;;;;;10349355;28;20141;-66
2022/07/17 15:47:05;;;;;;;4.90;2.40;;;24.10;70.20;;;;;;10346946;28;20571;-64
2022/07/17 15:52:06;;;;;;;7.47;2.50;;;24.20;69.90;;;;;;10350668;28;20036;-64
2022/07/17 15:57:07;;;;;;;3.50;2.05;;;24.40;69.80;;;;;;10336766;28;20517;-63
2022/07/17 16:02:08;;;;;;;5.20;2.40;;;24.50;69.60;;;;;;10350435;28;20852;-64
2022/07/17 16:07:08;;;;;;;5.55;2.85;;;24.50;69.80;;;;;;10340901;28;20068;-62
2022/07/17 16:12:09;;;;;;;5.47;2.58;;;24.40;70.40;;;;;;11047626;22;20139;-64
2022/07/17 16:17:10;;;;;;;7.47;2.70;;;24.20;70.40;;;;;;10364225;28;20137;-64
2022/07/17 16:22:10;;;;;;;4.90;2.60;;;24.00;70.10;;;;;;10357492;28;20140;-63
2022/07/17 16:27:11;;;;;;;8.00;2.75;;;23.90;70.80;;;;;;10358139;28;20021;-63
2022/07/17 16:32:12;;;;;;;5.57;3.60;;;23.80;71.00;;;;;;10338096;28;20044;-62
2022/07/17 16:37:13;;;;;;;6.78;2.47;;;23.60;71.20;;;;;;10358801;28;20056;-64
2022/07/17 16:42:13;;;;;;;5.93;2.95;;;23.50;71.70;;;;;;10357162;28;20153;-62
2022/07/17 16:47:14;;;;;;;6.10;2.80;;;23.30;71.60;;;;;;10356120;28;20033;-63
2022/07/17 16:52:15;;;;;;;6.82;2.83;;;23.30;72.50;;;;;;10354844;28;20055;-63
2022/07/17 16:57:16;;;;;;;7.72;2.63;;;23.20;72.10;;;;;;10339826;28;20036;-62
2022/07/17 17:02:17;;;;;;;5.55;2.72;;;23.20;72.20;;;;;;10357223;28;20498;-62
2022/07/17 17:07:17;;;;;;;11.00;2.58;;;23.20;72.80;;;;;;10357511;28;20029;-61
2022/07/17 17:12:18;;;;;;;7.82;2.95;;;23.20;73.50;;;;;;10359355;28;20650;-61
2022/07/17 17:17:19;;;;;;;6.07;2.75;;;23.20;73.50;;;;;;10356635;28;20593;-61
2022/07/17 17:22:20;;;;;;;8.10;2.83;;;23.20;73.70;;;;;;10343094;28;20736;-62
2022/07/17 17:27:21;;;;;;;6.38;2.58;;;23.20;73.60;;;;;;10351438;28;20563;-61
2022/07/17 17:32:21;;;;;;;7.55;2.83;;;23.20;73.20;;;;;;10352796;28;20402;-62
2022/07/17 17:37:22;;;;;;;5.20;2.50;;;23.10;73.40;;;;;;10350510;28;20379;-62
2022/07/17 17:42:23;;;;;;;7.75;2.47;;;23.10;74.10;;;;;;10361743;28;20140;-63
2022/07/17 17:47:24;;;;;;;4.18;2.33;;;23.10;74.30;;;;;;10361596;28;20492;-63
2022/07/17 17:52:24;;;;;;;4.70;2.55;;;23.10;74.40;;;;;;10363030;28;20349;-69
2022/07/17 17:57:25;;;;;;;4.75;2.60;;;23.10;74.80;;;;;;10345101;28;20394;-63
2022/07/17 18:02:26;;;;;;;4.28;2.55;;;22.90;75.00;;;;;;10353890;28;20140;-62
2022/07/17 18:07:27;;;;;;;4.15;2.40;;;23.00;75.20;;;;;;10359420;28;20025;-62
2022/07/17 18:12:27;;;;;;;3.42;2.20;;;22.90;75.30;;;;;;10369928;28;20056;-62
2022/07/17 18:17:28;;;;;;;4.90;2.40;;;22.90;75.30;;;;;;10364390;28;20454;-62
2022/07/17 18:22:29;;;;;;;7.95;2.65;;;22.90;75.70;;;;;;10363482;28;20461;-61
2022/07/17 18:27:30;;;;;;;3.88;2.30;;;22.90;75.90;;;;;;10360411;28;20030;-70
2022/07/17 18:32:30;;;;;;;8.07;2.80;;;22.90;76.40;;;;;;10360009;28;20498;-64
2022/07/17 18:37:32;;;;;;;5.38;2.50;;;22.80;76.70;;;;;;10362741;28;20037;-64
2022/07/17 18:42:33;;;;;;;4.05;2.80;;;22.80;77.10;;;;;;10362609;28;20044;-67
2022/07/17 18:47:34;;;;;;;3.83;2.45;;;22.70;77.40;;;;;;10362756;28;20310;-66
2022/07/17 18:52:35;;;;;;;6.60;2.33;;;22.60;77.70;;;;;;10682328;22;20548;-64
2022/07/17 18:57:36;;;;;;;2.72;1.65;;;22.60;77.70;;;;;;10358876;28;20029;-65
2022/07/17 19:02:39;;;;;;;3.95;2.42;;;22.50;77.80;;;;;;10357741;28;20057;-65
2022/07/17 19:07:39;;;;;;;4.93;2.28;;;22.50;78.00;;;;;;10359916;28;20331;-64
2022/07/17 19:12:40;;;;;;;3.28;2.45;;;22.40;78.10;;;;;;10363188;28;20612;-65
2022/07/17 19:17:41;;;;;;;6.20;2.13;;;22.40;78.30;;;;;;10342996;28;20361;-66
2022/07/17 19:22:42;;;;;;;3.53;2.08;;;22.30;78.70;;;;;;10364917;28;20554;-62
2022/07/17 19:27:43;;;;;;;4.10;2.42;;;22.20;79.10;;;;;;10363727;28;20025;-63
2022/07/17 19:32:44;;;;;;;3.45;2.25;;;22.20;79.10;;;;;;10350932;28;20601;-64
2022/07/17 19:37:45;;;;;;;4.15;2.35;;;22.30;79.10;;;;;;10362503;28;20032;-63
2022/07/17 19:42:46;;;;;;;5.82;2.97;;;22.40;79.00;;;;;;10361595;28;20833;-63
2022/07/17 19:47:46;;;;;;;4.63;2.20;;;22.40;78.90;;;;;;10350348;28;20059;-63
2022/07/17 19:52:47;;;;;;;5.50;2.55;;;22.40;78.90;;;;;;10348370;28;20289;-63
2022/07/17 19:57:48;;;;;;;3.53;1.88;;;22.40;78.80;;;;;;10354071;28;20297;-63
2022/07/17 20:02:48;;;;;;;3.58;2.08;;;22.40;78.90;;;;;;10353283;28;20033;-64
2022/07/17 20:07:49;;;;;;;3.67;2.20;;;22.40;78.90;;;;;;10351596;28;20428;-64
2022/07/17 20:12:51;;;;;;;6.05;3.13;;;22.30;78.90;;;;;;10349149;28;20067;-63
2022/07/17 20:17:52;;;;;;;3.47;1.95;;;22.40;79.00;;;;;;10350709;28;20044;-63
2022/07/17 20:22:53;;;;;;;4.15;2.38;;;22.40;79.00;;;;;;10374365;28;20116;-63
2022/07/17 20:27:53;;;;;;;5.05;2.38;;;22.30;79.00;;;;;;10439349;28;20040;-62
2022/07/17 20:32:54;;;;;;;4.32;2.55;;;22.30;79.10;;;;;;10438263;28;20052;-62
2022/07/17 20:37:55;;;;;;;4.82;2.40;;;22.30;79.20;;;;;;10439445;28;20128;-63
2022/07/17 20:42:56;;;;;;;4.35;2.30;;;22.30;79.20;;;;;;10438541;28;20075;-62
2022/07/17 20:47:56;;;;;;;4.88;2.60;;;22.20;79.20;;;;;;10439858;28;20040;-63
2022/07/17 20:52:57;;;;;;;4.00;2.33;;;22.20;79.30;;;;;;10439347;28;20464;-63
2022/07/17 20:57:58;;;;;;;3.97;2.35;;;22.20;79.40;;;;;;10437568;28;20033;-63
2022/07/17 21:02:59;;;;;;;4.68;2.20;;;22.10;79.90;;;;;;10443461;28;20627;-61
2022/07/17 21:07:59;;;;;;;3.75;2.13;;;22.10;79.40;;;;;;10445923;28;20035;-61
2022/07/17 21:13:01;;;;;;;4.15;2.28;;;22.10;79.40;;;;;;10441176;28;20060;-62
2022/07/17 21:18:01;;;;;;;3.67;2.10;;;22.10;79.50;;;;;;10440003;28;20033;-61
2022/07/17 21:23:02;;;;;;;4.25;2.22;;;22.00;79.50;;;;;;10441960;28;21223;-62
2022/07/17 21:28:03;;;;;;;3.90;2.05;;;22.00;79.50;;;;;;10441368;28;20102;-61
2022/07/17 21:33:04;;;;;;;3.95;2.28;;;22.00;79.60;;;;;;10441694;28;20028;-61
2022/07/17 21:38:04;;;;;;;3.90;2.40;;;21.90;79.60;;;;;;10443913;28;20091;-61
2022/07/17 21:43:05;;;;;;;5.10;2.28;;;21.90;79.60;;;;;;10443531;28;20021;-62
2022/07/17 21:48:06;;;;;;;4.18;2.55;;;21.90;79.70;;;;;;10445776;28;20033;-62
2022/07/17 21:53:07;;;;;;;3.40;2.10;;;21.80;79.70;;;;;;10443214;28;20056;-63
2022/07/17 21:58:08;;;;;;;4.82;2.60;;;21.80;79.70;;;;;;10446950;28;20395;-62
2022/07/17 22:03:09;;;;;;;4.15;2.72;;;21.80;79.70;;;;;;10445644;28;20070;-61
2022/07/17 22:08:10;;;;;;;4.20;2.50;;;21.70;79.70;;;;;;10443631;28;20021;-62
2022/07/17 22:13:11;;;;;;;4.65;2.70;;;21.70;79.80;;;;;;10445012;28;20033;-61
2022/07/17 22:18:12;;;;;;;4.32;2.92;;;21.70;79.90;;;;;;10445096;28;20025;-62
2022/07/17 22:23:13;;;;;;;5.40;2.80;;;21.60;79.80;;;;;;10444564;28;20028;-62
2022/07/17 22:28:15;;;;;;;4.93;2.88;;;21.60;79.90;;;;;;10444371;28;20151;-63
2022/07/17 22:33:15;;;;;;;4.93;2.65;;;21.60;80.00;;;;;;10444834;28;20071;-62
2022/07/17 22:38:16;;;;;;;4.25;2.70;;;21.50;80.00;;;;;;10442366;28;20556;-62
2022/07/17 22:43:17;;;;;;;4.70;2.92;;;21.50;80.10;;;;;;10442797;28;20112;-62
2022/07/17 22:48:17;;;;;;;6.13;2.80;;;21.50;80.10;;;;;;10442992;28;20090;-62
2022/07/17 22:53:18;;;;;;;4.72;2.70;;;21.40;80.20;;;;;;10443342;28;20037;-62
2022/07/17 22:58:19;;;;;;;5.07;2.60;;;21.40;80.20;;;;;;10443804;28;20037;-62
2022/07/17 23:03:20;;;;;;;5.32;2.70;;;21.40;80.30;;;;;;10442802;28;20491;-63
2022/07/17 23:08:21;;;;;;;4.68;2.70;;;21.40;80.30;;;;;;10443172;28;20040;-62
2022/07/17 23:13:22;;;;;;;5.00;3.00;;;21.30;80.40;;;;;;10442329;28;20082;-61
2022/07/17 23:18:22;;;;;;;4.82;2.97;;;21.30;80.40;;;;;;10424333;28;20044;-62
2022/07/17 23:23:23;;;;;;;4.55;2.72;;;21.30;80.50;;;;;;10442497;28;20043;-62
2022/07/17 23:28:24;;;;;;;5.47;2.80;;;21.20;80.50;;;;;;10441772;28;20036;-62
2022/07/17 23:33:25;;;;;;;4.82;2.80;;;21.20;80.50;;;;;;10442410;28;20114;-62
2022/07/17 23:38:25;;;;;;;3.88;2.60;;;21.20;80.60;;;;;;10442011;28;20032;-61
2022/07/17 23:43:26;;;;;;;6.05;3.10;;;21.20;80.60;;;;;;10441472;28;20031;-61
2022/07/17 23:48:27;;;;;;;4.53;2.80;;;21.10;80.60;;;;;;10441959;28;20025;-61
2022/07/17 23:53:28;;;;;;;3.88;2.50;;;21.10;80.60;;;;;;10440522;28;20045;-61
2022/07/17 23:58:28;;;;;;;5.78;3.30;;;21.10;80.60;;;;;;10437992;28;20044;-62
